Time;durP1;ratioP1;P1;durP2;ratioP2;P2;SDS_P1;SDS_P2;PMS_P1;PMS_P2;Temp;Humidity;BMP_temperature;BMP_pressure;BME280_temperature;BME280_humidity;BME280_pressure;Samples;Min_cycle;Max_cycle;Signal;HPM_P1;HPM_P2
2024/02/25 00:00:17;;;;;;;10.57;4.82;;;1.30;99.90;;;;;;20943366;27;20788;-42
2024/02/25 00:10:19;;;;;;;7.68;3.90;;;1.30;99.90;;;;;;20943877;27;20217;-41
2024/02/25 00:20:21;;;;;;;10.48;4.32;;;1.30;99.90;;;;;;20910151;27;20130;-42
2024/02/25 00:30:23;;;;;;;7.10;3.78;;;1.20;99.90;;;;;;20886271;27;20251;-43
2024/02/25 00:40:25;;;;;;;6.20;3.38;;;1.30;99.90;;;;;;20721776;28;20186;-42
2024/02/25 00:50:26;;;;;;;5.10;2.83;;;1.30;99.90;;;;;;20692089;28;20179;-42
2024/02/25 01:00:29;;;;;;;4.80;2.63;;;1.20;99.90;;;;;;20706835;28;20105;-41
2024/02/25 01:10:31;;;;;;;8.23;3.33;;;1.30;99.90;;;;;;20779338;28;20048;-43
2024/02/25 01:20:33;;;;;;;8.23;3.58;;;1.30;99.90;;;;;;20813711;28;20039;-42
2024/02/25 01:30:35;;;;;;;4.18;2.97;;;1.30;99.90;;;;;;20802272;28;21629;-42
2024/02/25 01:40:37;;;;;;;8.98;4.50;;;1.30;99.90;;;;;;20935605;28;20596;-43
2024/02/25 01:50:39;;;;;;;8.48;3.80;;;1.30;99.90;;;;;;20886478;28;20154;-42
2024/02/25 02:00:44;;;;;;;6.22;3.60;;;1.20;99.90;;;;;;20890068;27;20558;-43
2024/02/25 02:10:46;;;;;;;5.85;3.70;;;1.20;99.90;;;;;;20929265;27;21239;-43
2024/02/25 02:20:50;;;;;;;11.18;5.15;;;1.10;99.90;;;;;;20940870;27;20169;-41
2024/02/25 02:30:52;;;;;;;9.18;5.15;;;1.00;99.90;;;;;;20952977;27;20074;-42
2024/02/25 02:40:54;;;;;;;11.88;4.57;;;1.00;99.90;;;;;;20891847;27;20162;-43
2024/02/25 02:50:56;;;;;;;6.47;4.20;;;1.00;99.90;;;;;;20952246;27;20143;-45
2024/02/25 03:00:58;;;;;;;10.93;5.30;;;1.00;99.90;;;;;;20951385;27;20247;-45
2024/02/25 03:11:00;;;;;;;6.53;3.85;;;1.00;99.90;;;;;;20946572;27;20685;-43
2024/02/25 03:21:02;;;;;;;11.20;4.90;;;0.80;99.90;;;;;;20906488;27;20079;-42
2024/02/25 03:31:06;;;;;;;11.30;5.65;;;0.70;99.90;;;;;;20893007;27;20505;-42
2024/02/25 03:41:11;;;;;;;8.02;4.38;;;0.70;99.90;;;;;;20888808;27;20158;-41
2024/02/25 03:51:13;;;;;;;7.57;4.90;;;0.70;99.90;;;;;;20922693;27;20153;-41
2024/02/25 04:01:15;;;;;;;11.52;5.47;;;0.70;99.90;;;;;;20928225;27;20659;-45
2024/02/25 04:11:17;;;;;;;8.25;4.55;;;0.80;99.90;;;;;;20890878;27;20193;-42
2024/02/25 04:21:19;;;;;;;11.23;4.90;;;0.80;99.90;;;;;;20931648;27;20122;-41
2024/02/25 04:31:21;;;;;;;6.15;3.40;;;0.80;99.90;;;;;;20941692;27;21775;-42
2024/02/25 04:41:23;;;;;;;8.43;4.07;;;0.80;99.90;;;;;;20939142;27;20173;-41
2024/02/25 04:51:24;;;;;;;6.78;3.47;;;0.80;99.90;;;;;;20942646;28;20125;-42
2024/02/25 05:01:26;;;;;;;5.25;3.38;;;0.80;99.90;;;;;;20883175;28;20127;-41
2024/02/25 05:11:28;;;;;;;14.60;5.13;;;0.90;99.90;;;;;;20885370;28;20772;-44
2024/02/25 05:21:31;;;;;;;8.00;4.80;;;0.90;99.90;;;;;;20931881;28;20235;-42
2024/02/25 05:31:33;;;;;;;17.90;8.80;;;0.90;99.90;;;;;;20941315;27;21227;-42
2024/02/25 05:41:35;;;;;;;5.80;3.22;;;0.90;99.90;;;;;;20906377;27;20141;-44
2024/02/25 05:51:36;;;;;;;6.07;3.58;;;0.80;99.90;;;;;;20953308;27;21087;-42
2024/02/25 06:01:38;;;;;;;9.95;3.72;;;0.70;99.90;;;;;;20952642;27;20453;-42
2024/02/25 06:11:40;;;;;;;6.15;3.03;;;0.60;99.90;;;;;;20896681;27;20216;-43
2024/02/25 06:21:44;;;;;;;7.32;3.22;;;0.50;99.90;;;;;;20943193;27;20122;-42
2024/02/25 06:31:46;;;;;;;5.20;2.95;;;0.50;99.90;;;;;;20898116;27;20170;-45
2024/02/25 06:41:48;;;;;;;4.38;2.97;;;0.60;99.90;;;;;;20943177;27;20088;-45
2024/02/25 06:51:49;;;;;;;6.95;2.90;;;0.70;99.90;;;;;;20949972;27;20166;-42
2024/02/25 07:01:51;;;;;;;3.22;2.45;;;0.90;99.90;;;;;;20927664;27;20070;-41
2024/02/25 07:11:53;;;;;;;3.58;2.53;;;1.10;99.90;;;;;;20907716;27;20084;-43
2024/02/25 07:21:55;;;;;;;4.13;2.40;;;1.40;99.90;;;;;;20915603;27;20134;-42
2024/02/25 07:31:58;;;;;;;4.68;2.53;;;1.50;99.90;;;;;;20930911;27;20966;-43
2024/02/25 07:42:00;;;;;;;6.47;2.17;;;1.70;99.90;;;;;;20944112;27;20067;-42
2024/02/25 07:52:02;;;;;;;4.25;1.70;;;2.30;99.90;;;;;;20948023;27;20200;-41
2024/02/25 08:02:03;;;;;;;1.30;0.80;;;2.80;99.90;;;;;;20937025;27;21875;-42
2024/02/25 08:12:05;;;;;;;1.27;0.80;;;3.60;99.90;;;;;;20927752;27;20618;-42
2024/02/25 08:22:07;;;;;;;2.97;1.52;;;4.40;99.90;;;;;;20893628;27;20122;-42
2024/02/25 08:32:10;;;;;;;2.95;1.90;;;4.80;99.90;;;;;;20888591;27;20142;-42
2024/02/25 08:42:16;;;;;;;3.28;1.40;;;5.20;99.90;;;;;;20890296;27;20556;-42
2024/02/25 08:52:19;;;;;;;5.90;2.55;;;5.50;99.90;;;;;;20902351;28;20178;-41
2024/02/25 09:02:21;;;;;;;6.68;2.67;;;5.50;99.90;;;;;;20932262;28;20134;-43
2024/02/25 09:24:39;;;;;;;3.85;1.85;;;5.40;99.90;;;;;;20907719;27;20165;-44
2024/02/25 09:34:41;;;;;;;2.47;1.65;;;4.80;99.90;;;;;;20946685;27;21227;-43
2024/02/25 09:44:43;;;;;;;2.92;1.70;;;4.90;99.90;;;;;;20900780;27;20140;-42
2024/02/25 09:54:48;;;;;;;2.47;1.70;;;4.70;99.90;;;;;;20947891;27;20163;-42
2024/02/25 10:04:52;;;;;;;2.53;1.55;;;4.50;99.90;;;;;;20927593;27;20059;-41
2024/02/25 10:14:57;;;;;;;3.70;1.65;;;4.20;99.90;;;;;;20944387;27;20093;-42
2024/02/25 10:25:04;;;;;;;1.80;0.90;;;3.60;99.90;;;;;;20924417;27;20653;-42
2024/02/25 10:35:09;;;;;;;2.05;0.90;;;3.50;99.90;;;;;;20919389;27;20792;-44
2024/02/25 10:45:16;;;;;;;1.58;1.00;;;4.10;99.90;;;;;;20911780;27;20185;-41
2024/02/25 10:55:19;;;;;;;2.05;1.08;;;3.80;99.90;;;;;;20930364;27;20170;-43
2024/02/25 11:05:21;;;;;;;1.45;0.95;;;4.10;99.90;;;;;;20932440;27;20085;-42
2024/02/25 11:15:28;;;;;;;1.95;1.00;;;4.70;99.90;;;;;;20918358;27;20710;-42
2024/02/25 11:25:40;;;;;;;1.52;0.70;;;5.20;99.90;;;;;;20933753;27;20279;-43
2024/02/25 11:35:45;;;;;;;1.00;0.70;;;5.10;99.90;;;;;;20921292;27;20178;-47
2024/02/25 11:45:48;;;;;;;1.20;0.60;;;5.00;99.90;;;;;;20921908;27;20115;-41
2024/02/25 11:55:51;;;;;;;2.03;1.10;;;5.20;99.90;;;;;;20896787;27;20170;-43
2024/02/25 12:05:53;;;;;;;1.42;0.55;;;5.50;99.90;;;;;;20904378;27;20147;-43
2024/02/25 12:15:55;;;;;;;1.88;0.60;;;6.50;99.90;;;;;;20925926;27;20112;-42
2024/02/25 12:26:04;;;;;;;1.67;0.30;;;8.30;99.90;;;;;;20880488;27;21089;-43
2024/02/25 12:36:07;;;;;;;0.93;0.30;;;11.20;99.90;;;;;;20880249;27;20170;-44
2024/02/25 12:46:10;;;;;;;1.70;0.40;;;9.90;99.90;;;;;;20905489;27;20678;-41
2024/02/25 12:56:13;;;;;;;0.40;0.30;;;8.30;99.90;;;;;;20938952;28;20074;-43
2024/02/25 13:06:16;;;;;;;0.70;0.30;;;8.10;99.90;;;;;;20883425;28;20138;-44
2024/02/25 13:16:18;;;;;;;1.67;0.40;;;9.30;99.90;;;;;;20923248;28;20087;-43
2024/02/25 13:26:20;;;;;;;0.85;0.40;;;9.20;99.90;;;;;;20908549;28;20130;-41
2024/02/25 13:46:43;;;;;;;0.90;0.30;;;7.60;99.90;;;;;;21019845;27;20309;-44
2024/02/25 13:56:45;;;;;;;1.30;0.45;;;8.10;99.90;;;;;;20936142;28;20166;-43
2024/02/25 14:06:47;;;;;;;2.35;0.50;;;7.40;99.90;;;;;;20934811;28;20158;-42
2024/02/25 14:16:49;;;;;;;1.42;0.30;;;7.00;99.90;;;;;;20936413;28;21119;-43
2024/02/25 14:26:51;;;;;;;1.08;0.17;;;6.30;99.90;;;;;;20936367;28;20154;-43
2024/02/25 14:36:56;;;;;;;0.57;0.28;;;5.90;99.90;;;;;;20933631;28;20176;-42
2024/02/25 14:46:58;;;;;;;3.80;0.50;;;6.00;99.90;;;;;;20931718;28;20188;-42
2024/02/25 14:57:04;;;;;;;1.83;0.30;;;6.20;99.90;;;;;;20879884;28;20155;-42
2024/02/25 15:07:07;;;;;;;2.17;0.50;;;6.10;99.90;;;;;;20876401;28;20166;-42
2024/02/25 15:17:09;;;;;;;1.17;0.43;;;5.80;99.90;;;;;;20874557;28;20226;-42
2024/02/25 15:27:11;;;;;;;1.80;0.47;;;5.40;99.90;;;;;;20873560;28;20184;-43
2024/02/25 15:37:13;;;;;;;0.30;0.20;;;4.80;99.90;;;;;;20870938;28;20130;-44
2024/02/25 15:47:15;;;;;;;1.75;0.40;;;4.20;99.90;;;;;;20875996;28;20059;-42
2024/02/25 15:57:17;;;;;;;1.60;0.45;;;4.00;99.90;;;;;;20869300;28;20248;-42
2024/02/25 16:07:19;;;;;;;0.63;0.47;;;3.70;99.90;;;;;;20868020;28;20798;-41
2024/02/25 16:17:24;;;;;;;0.60;0.40;;;3.50;99.90;;;;;;20866249;28;20177;-41
2024/02/25 16:27:26;;;;;;;0.50;0.30;;;3.10;99.90;;;;;;20869401;28;20108;-40
2024/02/25 16:37:28;;;;;;;0.82;0.40;;;2.90;99.90;;;;;;20868585;28;20182;-42
2024/02/25 16:47:30;;;;;;;5.68;1.10;;;2.70;99.90;;;;;;20871248;28;21338;-41
2024/02/25 16:57:31;;;;;;;1.98;1.10;;;2.10;99.90;;;;;;20867617;28;20067;-40
2024/02/25 17:07:35;;;;;;;1.40;0.90;;;1.40;99.90;;;;;;20866160;28;20116;-40
2024/02/25 17:17:37;;;;;;;3.03;0.90;;;0.80;99.90;;;;;;20870647;28;20067;-43
2024/02/25 17:27:42;;;;;;;5.07;2.40;;;0.60;99.90;;;;;;20863196;28;20130;-40
2024/02/25 17:37:44;;;;;;;4.57;2.22;;;0.40;99.90;;;;;;20864875;28;20138;-40
2024/02/25 17:47:46;;;;;;;4.80;3.03;;;0.30;99.90;;;;;;20848863;28;20173;-41
2024/02/25 17:57:48;;;;;;;4.95;2.65;;;0.30;99.90;;;;;;20864090;28;20174;-40
2024/02/25 18:07:50;;;;;;;2.60;1.80;;;0.40;99.90;;;;;;20864651;28;20890;-44
2024/02/25 18:17:52;;;;;;;2.10;1.50;;;0.50;99.90;;;;;;20866585;28;20044;-41
2024/02/25 18:27:53;;;;;;;2.35;1.17;;;0.60;99.90;;;;;;20852488;28;20864;-41
2024/02/25 18:37:57;;;;;;;12.07;5.22;;;0.70;99.90;;;;;;20881049;28;20142;-40
2024/02/25 18:47:59;;;;;;;13.15;7.25;;;0.80;99.90;;;;;;20877261;28;20126;-41
2024/02/25 18:58:01;;;;;;;9.93;6.07;;;0.90;99.90;;;;;;20878766;28;21198;-41
2024/02/25 19:08:08;;;;;;;2.78;1.88;;;0.90;99.90;;;;;;20876672;28;20175;-41
2024/02/25 19:18:10;;;;;;;6.35;2.70;;;0.90;99.90;;;;;;20875363;28;20251;-41
2024/02/25 19:28:12;;;;;;;3.60;2.47;;;0.90;99.90;;;;;;20873708;28;20138;-41
2024/02/25 19:38:14;;;;;;;4.28;2.30;;;1.00;99.90;;;;;;20871564;28;20051;-42
2024/02/25 19:48:16;;;;;;;3.15;1.50;;;1.00;99.90;;;;;;20872710;28;20264;-41
2024/02/25 19:58:18;;;;;;;1.52;0.77;;;1.00;99.90;;;;;;20872260;28;20154;-42
2024/02/25 20:08:21;;;;;;;0.90;0.55;;;1.10;99.90;;;;;;20870520;28;20232;-41
2024/02/25 20:18:23;;;;;;;2.00;0.90;;;1.10;99.90;;;;;;20870257;28;21233;-43
2024/02/25 20:28:25;;;;;;;2.47;0.93;;;1.20;99.90;;;;;;20855164;28;20220;-44
2024/02/25 20:38:27;;;;;;;1.73;1.15;;;1.20;99.90;;;;;;20849612;28;20127;-41
2024/02/25 20:48:30;;;;;;;1.65;1.20;;;1.20;99.90;;;;;;20867438;28;20118;-41
2024/02/25 20:58:32;;;;;;;3.78;1.88;;;1.20;99.90;;;;;;20871063;28;20130;-43
2024/02/25 21:08:37;;;;;;;5.03;2.92;;;1.30;99.90;;;;;;20867195;28;20130;-41
2024/02/25 21:18:38;;;;;;;4.55;3.15;;;1.30;99.90;;;;;;20869571;28;20130;-42
2024/02/25 21:28:43;;;;;;;6.10;3.85;;;1.20;99.90;;;;;;20845754;28;20122;-41
2024/02/25 21:38:45;;;;;;;6.53;3.17;;;1.10;99.90;;;;;;20684135;28;20048;-43
2024/02/25 21:48:47;;;;;;;5.15;3.25;;;1.10;99.90;;;;;;20689024;28;20170;-42
2024/02/25 21:58:49;;;;;;;5.95;3.92;;;1.10;99.90;;;;;;20686673;28;20542;-41
2024/02/25 22:08:51;;;;;;;5.07;3.22;;;1.10;99.90;;;;;;20841261;28;20170;-41
2024/02/25 22:18:52;;;;;;;3.70;2.30;;;1.00;99.90;;;;;;20883985;28;21803;-41
2024/02/25 22:28:54;;;;;;;3.08;2.08;;;0.90;99.90;;;;;;20875421;28;20176;-41
2024/02/25 22:38:56;;;;;;;4.82;2.33;;;0.90;99.90;;;;;;20876536;28;20201;-43
2024/02/25 22:48:58;;;;;;;4.68;2.35;;;0.90;99.90;;;;;;20856854;28;20165;-41
2024/02/25 22:59:00;;;;;;;3.17;2.22;;;1.00;99.90;;;;;;20874067;28;20295;-41
2024/02/25 23:09:05;;;;;;;3.97;2.53;;;1.00;99.90;;;;;;20879030;28;20117;-41
2024/02/25 23:19:06;;;;;;;4.07;2.50;;;1.00;99.90;;;;;;20862569;28;20252;-41
2024/02/25 23:29:08;;;;;;;4.38;2.60;;;1.10;99.90;;;;;;20857417;28;20573;-41
2024/02/25 23:39:10;;;;;;;6.50;4.00;;;1.10;99.90;;;;;;20870055;28;20092;-42
2024/02/25 23:49:13;;;;;;;6.60;3.53;;;1.10;99.90;;;;;;20872254;28;20166;-41
2024/02/25 23:59:16;;;;;;;7.60;4.40;;;1.10;99.90;;;;;;20874824;28;20126;-43
